createdAt,value
2023-07-24T00:00:26.396Z,-39.96
2023-07-24T00:01:26.416Z,-39.96
2023-07-24T00:02:26.381Z,-40.00
2023-07-24T00:03:26.397Z,-39.96
2023-07-24T00:04:26.333Z,-40.00
2023-07-24T00:05:26.331Z,-39.96
2023-07-24T00:06:26.305Z,-40.00
2023-07-24T00:07:26.336Z,-39.96
2023-07-24T00:08:26.322Z,-40.00
2023-07-24T00:09:26.265Z,-40.00
2023-07-24T00:10:26.252Z,-40.00
2023-07-24T00:11:26.246Z,-40.00
2023-07-24T00:12:26.245Z,-40.00
2023-07-24T00:13:26.248Z,-40.00
2023-07-24T00:14:26.202Z,-40.00
2023-07-24T00:15:26.182Z,-39.96
2023-07-24T00:16:26.236Z,-40.00
2023-07-24T00:17:26.257Z,-39.96
2023-07-24T00:18:26.210Z,-39.96
2023-07-24T00:19:26.129Z,-40.00
2023-07-24T00:20:26.153Z,-40.00
2023-07-24T00:21:26.112Z,-40.00
2023-07-24T00:22:26.110Z,-40.00
2023-07-24T00:23:26.134Z,-40.00
2023-07-24T00:24:26.103Z,-39.96
2023-07-24T00:25:26.046Z,-40.00
2023-07-24T00:26:26.051Z,-39.96
2023-07-24T00:27:26.041Z,-40.00
2023-07-24T00:28:25.999Z,-39.96
2023-07-24T00:29:25.998Z,-39.96
2023-07-24T00:30:25.985Z,-39.96
2023-07-24T00:31:26.082Z,-40.00
2023-07-24T00:32:25.979Z,-19.38
2023-07-24T00:33:25.935Z,-39.96
2023-07-24T00:34:29.293Z,-39.96
2023-07-24T00:35:25.912Z,-39.96
2023-07-24T00:36:25.950Z,-39.96
2023-07-24T00:37:25.893Z,-39.96
2023-07-24T00:38:25.879Z,-39.96
2023-07-24T00:39:25.852Z,-39.96
2023-07-24T00:40:25.863Z,-39.96
2023-07-24T00:41:25.845Z,-39.96
2023-07-24T00:42:25.823Z,-39.96
2023-07-24T00:43:25.817Z,-39.96
2023-07-24T00:44:25.785Z,-39.96
2023-07-24T00:45:25.803Z,-39.96
2023-07-24T00:46:25.818Z,-39.96
2023-07-24T00:47:25.774Z,-39.96
2023-07-24T00:48:25.731Z,-39.96
2023-07-24T00:49:25.726Z,-39.96
2023-07-24T00:50:25.714Z,-39.96
2023-07-24T00:51:25.696Z,-39.96
2023-07-24T00:52:25.681Z,-39.96
2023-07-24T00:53:25.678Z,-39.96
2023-07-24T00:54:25.682Z,-39.96
2023-07-24T00:55:25.669Z,-39.96
2023-07-24T00:56:25.685Z,-39.96
2023-07-24T00:57:25.622Z,-39.96
2023-07-24T00:58:25.612Z,-39.96
2023-07-24T00:59:25.633Z,-39.96
2023-07-24T01:00:25.643Z,-39.96
2023-07-24T01:01:25.572Z,-39.96
2023-07-24T01:02:25.564Z,-39.96
2023-07-24T01:03:25.553Z,-39.96
2023-07-24T01:04:25.530Z,-39.96
2023-07-24T01:05:25.522Z,-39.96
2023-07-24T01:06:25.510Z,-39.96
2023-07-24T01:07:25.488Z,-39.96
2023-07-24T01:08:25.488Z,-39.96
2023-07-24T01:09:25.453Z,-39.96
2023-07-24T01:10:25.443Z,-39.96
2023-07-24T01:11:25.420Z,-39.96
2023-07-24T01:12:25.411Z,-39.96
2023-07-24T01:13:25.426Z,-39.96
2023-07-24T01:14:25.382Z,-39.96
2023-07-24T01:15:25.376Z,-39.96
2023-07-24T01:16:25.359Z,-39.96
2023-07-24T01:17:25.402Z,-39.96
2023-07-24T01:18:25.342Z,-39.96
2023-07-24T01:19:25.327Z,-39.96
2023-07-24T01:20:25.310Z,-39.96
2023-07-24T01:21:25.288Z,-39.96
2023-07-24T01:22:25.327Z,-39.96
2023-07-24T01:23:25.262Z,-39.96
2023-07-24T01:24:25.301Z,-39.96
2023-07-24T01:25:25.239Z,-39.96
2023-07-24T01:26:25.325Z,-39.96
2023-07-24T01:27:25.228Z,-39.96
2023-07-24T01:28:25.197Z,-39.96
2023-07-24T01:29:25.176Z,-39.96
2023-07-24T01:30:25.209Z,-39.96
2023-07-24T01:31:25.178Z,-39.96
2023-07-24T01:32:25.173Z,-39.96
2023-07-24T01:33:25.139Z,-39.96
2023-07-24T01:34:25.112Z,-39.96
2023-07-24T01:35:25.108Z,-39.96
2023-07-24T01:36:25.108Z,-39.96
2023-07-24T01:37:25.069Z,-39.96
2023-07-24T01:38:25.060Z,-39.96
2023-07-24T01:39:25.064Z,-39.96
2023-07-24T01:40:25.024Z,-39.96
2023-07-24T01:41:25.037Z,-39.96
2023-07-24T01:42:25.002Z,-39.96
2023-07-24T01:43:24.989Z,-39.96
2023-07-24T01:44:24.985Z,-39.96
2023-07-24T01:45:24.981Z,-39.96
2023-07-24T01:46:25.016Z,-39.96
2023-07-24T01:47:24.992Z,-39.96
2023-07-24T01:48:24.931Z,-39.96
2023-07-24T01:49:24.922Z,-39.96
2023-07-24T01:50:24.918Z,-40.00
2023-07-24T01:51:24.887Z,-39.96
2023-07-24T01:52:24.869Z,-39.96
2023-07-24T01:53:24.872Z,-39.96
2023-07-24T01:54:24.862Z,-39.96
2023-07-24T01:55:24.870Z,-39.96
2023-07-24T01:56:24.820Z,-39.96
2023-07-24T01:57:24.800Z,-40.00
2023-07-24T01:58:24.805Z,-39.96
2023-07-24T01:59:24.795Z,-39.96
2023-07-24T02:00:24.766Z,-40.00
2023-07-24T02:01:24.765Z,-39.96
2023-07-24T02:02:24.751Z,-39.96
2023-07-24T02:03:24.855Z,-39.96
2023-07-24T02:04:24.749Z,-39.96
2023-07-24T02:05:24.704Z,-39.96
2023-07-24T02:06:24.683Z,-39.96
2023-07-24T02:07:24.688Z,-39.96
2023-07-24T02:08:24.669Z,-39.96
2023-07-24T02:09:24.664Z,-39.96
2023-07-24T02:10:24.639Z,-39.96
2023-07-24T02:11:24.645Z,-39.96
2023-07-24T02:12:24.607Z,-39.96
2023-07-24T02:13:24.615Z,-39.96
2023-07-24T02:14:24.591Z,-39.96
2023-07-24T02:15:24.572Z,-39.96
2023-07-24T02:16:24.619Z,-39.96
2023-07-24T02:17:24.583Z,-39.96
2023-07-24T02:18:24.534Z,-39.96
2023-07-24T02:19:24.518Z,-39.96
2023-07-24T02:20:24.492Z,-40.00
2023-07-24T02:21:24.497Z,-39.96
2023-07-24T02:22:24.477Z,-39.96
2023-07-24T02:23:24.476Z,-39.96
2023-07-24T02:24:24.487Z,-39.96
2023-07-24T02:25:24.436Z,-39.96
2023-07-24T02:26:24.418Z,-39.96
2023-07-24T02:27:24.424Z,-39.96
2023-07-24T02:28:24.379Z,-39.96
2023-07-24T02:29:24.380Z,-39.96
2023-07-24T02:30:24.371Z,-39.96
2023-07-24T02:31:24.386Z,-39.96
2023-07-24T02:32:24.377Z,-39.96
2023-07-24T02:33:24.321Z,-39.96
2023-07-24T02:34:24.318Z,-39.96
2023-07-24T02:35:24.303Z,-39.96
2023-07-24T02:36:24.291Z,-39.96
2023-07-24T02:37:24.295Z,-39.96
2023-07-24T02:38:24.260Z,-39.96
2023-07-24T02:39:24.243Z,-39.96
2023-07-24T02:40:24.237Z,-39.96
2023-07-24T02:41:24.240Z,-39.96
2023-07-24T02:42:24.207Z,-39.96
2023-07-24T02:43:24.195Z,-39.96
2023-07-24T02:44:24.177Z,-39.96
2023-07-24T02:45:24.185Z,-40.00
2023-07-24T02:46:24.222Z,-39.96
2023-07-24T02:47:24.227Z,-39.96
2023-07-24T02:48:24.123Z,-39.96
2023-07-24T02:49:24.108Z,-39.96
2023-07-24T02:50:24.118Z,-39.96
2023-07-24T02:51:24.082Z,-39.96
2023-07-24T02:52:24.081Z,-39.68
2023-07-24T02:53:24.068Z,-39.96
2023-07-24T02:54:24.043Z,-39.96
2023-07-24T02:55:24.048Z,-39.96
2023-07-24T02:56:24.018Z,-39.96
2023-07-24T02:57:24.009Z,-39.96
2023-07-24T02:58:24.001Z,-40.00
2023-07-24T02:59:23.999Z,-39.96
2023-07-24T03:00:23.971Z,-39.96
2023-07-24T03:01:23.983Z,-39.96
2023-07-24T03:02:24.020Z,-39.96
2023-07-24T03:03:24.008Z,-39.96
2023-07-24T03:04:23.917Z,-39.96
2023-07-24T03:05:23.915Z,-39.96
2023-07-24T03:06:23.879Z,-40.00
2023-07-24T03:07:23.860Z,-39.96
2023-07-24T03:08:23.844Z,-39.96
2023-07-24T03:09:23.865Z,-39.96
2023-07-24T03:10:23.816Z,-39.96
2023-07-24T03:11:23.806Z,-39.96
2023-07-24T03:12:23.793Z,-39.96
2023-07-24T03:13:23.823Z,-39.96
2023-07-24T03:14:23.778Z,-39.96
2023-07-24T03:15:23.777Z,-39.96
2023-07-24T03:16:23.728Z,-39.96
2023-07-24T03:17:23.772Z,-39.96
2023-07-24T03:18:23.731Z,-39.96
2023-07-24T03:19:23.717Z,-39.96
2023-07-24T03:20:23.693Z,-39.96
2023-07-24T03:21:23.676Z,-39.96
2023-07-24T03:22:23.660Z,-39.96
2023-07-24T03:23:23.670Z,-40.00
2023-07-24T03:24:23.666Z,-39.96
2023-07-24T03:25:23.645Z,-40.00
2023-07-24T03:26:23.603Z,-39.96
2023-07-24T03:27:23.612Z,-39.96
2023-07-24T03:28:23.592Z,-39.96
2023-07-24T03:29:23.588Z,-40.00
2023-07-24T03:30:23.586Z,-40.00
2023-07-24T03:31:23.632Z,-40.00
2023-07-24T03:32:23.564Z,-40.00
2023-07-24T03:33:23.526Z,-40.00
2023-07-24T03:34:23.492Z,-40.00
2023-07-24T03:35:23.506Z,-40.00
2023-07-24T03:36:24.767Z,-39.96
2023-07-24T03:37:23.484Z,-39.96
2023-07-24T03:38:23.453Z,-39.96
2023-07-24T03:39:23.423Z,-39.96
2023-07-24T03:40:23.441Z,-40.00
2023-07-24T03:41:23.445Z,-40.00
2023-07-24T03:42:23.407Z,16.63
2023-07-24T03:43:23.374Z,-40.00
2023-07-24T03:44:23.403Z,-40.00
2023-07-24T03:45:23.332Z,-40.00
2023-07-24T03:46:23.392Z,-39.96
2023-07-24T03:47:23.321Z,-40.00
2023-07-24T03:48:23.303Z,-40.00
2023-07-24T03:49:23.299Z,-39.96
2023-07-24T03:50:23.281Z,-39.96
2023-07-24T03:51:23.386Z,-40.00
2023-07-24T03:52:23.244Z,-40.00
2023-07-24T03:53:23.269Z,-40.00
2023-07-24T03:54:23.226Z,-40.00
2023-07-24T03:55:23.261Z,-40.00
2023-07-24T03:56:23.225Z,-40.00
2023-07-24T03:57:23.190Z,-40.00
2023-07-24T03:58:23.176Z,-40.00
2023-07-24T03:59:23.149Z,-40.00
2023-07-24T04:00:23.154Z,-39.96
2023-07-24T04:01:23.143Z,-40.00
2023-07-24T04:02:23.176Z,-40.00
2023-07-24T04:03:23.137Z,-40.00
2023-07-24T04:04:23.102Z,-39.96
2023-07-24T04:05:23.085Z,-40.00
2023-07-24T04:06:23.078Z,-40.00
2023-07-24T04:07:23.041Z,-39.96
2023-07-24T04:08:23.044Z,-40.00
2023-07-24T04:09:23.027Z,-40.00
2023-07-24T04:10:23.035Z,-39.96
2023-07-24T04:11:22.991Z,-40.00
2023-07-24T04:12:23.002Z,-39.96
2023-07-24T04:13:22.960Z,-39.96
2023-07-24T04:14:22.972Z,-39.96
2023-07-24T04:15:22.937Z,-39.96
2023-07-24T04:16:22.955Z,-39.96
2023-07-24T04:17:22.962Z,-39.96
2023-07-24T04:18:22.910Z,-39.96
2023-07-24T04:19:22.906Z,-40.00
2023-07-24T04:20:22.897Z,18.44
2023-07-24T04:21:22.899Z,18.47
2023-07-24T04:22:22.848Z,18.47
2023-07-24T04:23:22.856Z,18.49
2023-07-24T04:24:22.851Z,18.50
2023-07-24T04:25:22.806Z,-40.00
2023-07-24T04:26:22.791Z,-40.00
2023-07-24T04:27:22.797Z,-40.00
2023-07-24T04:28:22.798Z,-29.69
2023-07-24T04:29:22.745Z,-40.00
2023-07-24T04:30:22.745Z,-39.96
2023-07-24T04:31:22.789Z,-40.00
2023-07-24T04:32:22.861Z,-39.96
2023-07-24T04:33:22.889Z,-39.96
2023-07-24T04:34:22.725Z,-39.96
2023-07-24T04:35:22.675Z,-39.96
2023-07-24T04:36:22.667Z,-40.00
2023-07-24T04:37:22.657Z,-39.96
2023-07-24T04:38:22.643Z,-39.96
2023-07-24T04:39:22.633Z,-39.96
2023-07-24T04:40:22.617Z,-40.00
2023-07-24T04:41:22.612Z,-40.00
2023-07-24T04:42:22.603Z,-39.96
2023-07-24T04:43:22.555Z,-39.96
2023-07-24T04:44:22.547Z,-40.00
2023-07-24T04:45:24.163Z,-40.00
2023-07-24T04:46:22.558Z,-39.96
2023-07-24T04:47:22.527Z,-39.96
2023-07-24T04:48:22.692Z,-39.96
2023-07-24T04:49:22.474Z,-39.96
2023-07-24T04:50:22.473Z,-39.96
2023-07-24T04:51:22.460Z,-39.96
2023-07-24T04:52:22.443Z,-39.36
2023-07-24T04:53:22.428Z,-40.00
2023-07-24T04:54:22.419Z,-40.00
2023-07-24T04:55:22.409Z,-40.00
2023-07-24T04:56:22.408Z,-40.00
2023-07-24T04:57:22.376Z,-39.96
2023-07-24T04:58:22.363Z,-40.00
2023-07-24T04:59:22.334Z,-39.96
2023-07-24T05:00:22.361Z,-39.96
2023-07-24T05:01:22.336Z,-39.96
2023-07-24T05:02:22.309Z,-39.96
2023-07-24T05:03:22.286Z,-39.96
2023-07-24T05:04:22.310Z,-39.96
2023-07-24T05:05:22.274Z,-40.00
2023-07-24T05:06:22.254Z,-39.96
2023-07-24T05:07:22.220Z,-40.00
2023-07-24T05:08:22.240Z,-40.00
2023-07-24T05:09:22.231Z,-39.96
2023-07-24T05:10:22.254Z,-39.96
2023-07-24T05:11:22.186Z,-40.00
2023-07-24T05:12:22.201Z,-39.96
2023-07-24T05:13:22.150Z,-39.96
2023-07-24T05:14:22.158Z,-39.96
2023-07-24T05:15:22.130Z,-39.96
2023-07-24T05:16:22.125Z,-39.96
2023-07-24T05:17:22.132Z,-40.00
2023-07-24T05:18:22.113Z,-39.96
2023-07-24T05:19:22.091Z,-40.00
2023-07-24T05:20:22.083Z,-39.96
2023-07-24T05:21:22.042Z,-40.00
2023-07-24T05:22:22.037Z,-40.00
2023-07-24T05:23:22.032Z,-39.96
2023-07-24T05:24:22.044Z,-40.00
2023-07-24T05:25:21.979Z,-39.96
2023-07-24T05:26:21.982Z,-40.00
2023-07-24T05:27:21.966Z,-40.00
2023-07-24T05:28:21.960Z,18.62
2023-07-24T05:29:21.944Z,-40.00
2023-07-24T05:30:21.929Z,-40.00
2023-07-24T05:31:21.942Z,18.73
2023-07-24T05:32:21.945Z,-40.00
2023-07-24T05:33:21.900Z,18.73
2023-07-24T05:34:21.872Z,18.74
2023-07-24T05:35:21.849Z,18.80
2023-07-24T05:36:21.853Z,18.80
2023-07-24T05:37:21.864Z,-40.00
2023-07-24T05:38:21.820Z,18.76
2023-07-24T05:39:21.830Z,18.74
2023-07-24T05:40:21.874Z,-40.00
2023-07-24T05:41:21.774Z,-40.00
2023-07-24T05:42:21.806Z,-40.00
2023-07-24T05:43:21.747Z,-39.96
2023-07-24T05:44:21.740Z,-39.96
2023-07-24T05:45:21.717Z,18.87
2023-07-24T05:46:21.729Z,-39.96
2023-07-24T05:47:21.746Z,-39.96
2023-07-24T05:48:21.678Z,-39.96
2023-07-24T05:49:21.652Z,-40.00
2023-07-24T05:50:21.655Z,-40.00
2023-07-24T05:51:21.659Z,-40.00
2023-07-24T05:52:21.630Z,-40.00
2023-07-24T05:53:21.614Z,-40.00
2023-07-24T05:54:21.604Z,-39.96
2023-07-24T05:55:21.606Z,-40.00
2023-07-24T05:56:21.643Z,-40.00
2023-07-24T05:57:21.550Z,-40.00
2023-07-24T05:58:21.539Z,-39.96
2023-07-24T05:59:21.522Z,-40.00
2023-07-24T06:00:21.565Z,-39.96
2023-07-24T06:01:21.556Z,-40.00
2023-07-24T06:02:21.492Z,-40.00
2023-07-24T06:03:21.510Z,-40.00
2023-07-24T06:04:21.549Z,-40.00
2023-07-24T06:05:21.469Z,19.25
2023-07-24T06:06:21.437Z,15.86
2023-07-24T06:07:21.407Z,-40.00
2023-07-24T06:08:21.411Z,-40.00
2023-07-24T06:09:22.293Z,-39.96
2023-07-24T06:10:21.426Z,-40.00
2023-07-24T06:11:21.381Z,-40.00
2023-07-24T06:12:21.354Z,-39.96
2023-07-24T06:13:21.353Z,-40.00
2023-07-24T06:14:21.331Z,-40.00
2023-07-24T06:15:21.312Z,-39.96
2023-07-24T06:16:21.334Z,-39.96
2023-07-24T06:17:21.305Z,-40.00
2023-07-24T06:18:21.290Z,-39.99
2023-07-24T06:19:21.261Z,-39.96
2023-07-24T06:20:21.252Z,-39.96
2023-07-24T06:21:21.237Z,-40.00
2023-07-24T06:22:21.248Z,-40.00
2023-07-24T06:23:21.217Z,-39.96
2023-07-24T06:24:21.230Z,-39.96
2023-07-24T06:25:21.166Z,-40.00
2023-07-24T06:26:21.169Z,-40.00
2023-07-24T06:27:21.182Z,-39.96
2023-07-24T06:28:21.157Z,-40.00
2023-07-24T06:29:21.118Z,-40.00
2023-07-24T06:30:21.104Z,-40.00
2023-07-24T06:31:21.124Z,-39.96
2023-07-24T06:32:21.079Z,-40.00
2023-07-24T06:33:21.079Z,19.79
2023-07-24T06:34:21.054Z,19.73
2023-07-24T06:35:21.044Z,19.79
2023-07-24T06:36:21.028Z,19.80
2023-07-24T06:37:23.197Z,19.86
2023-07-24T06:38:21.009Z,19.87
2023-07-24T06:39:20.987Z,19.93
2023-07-24T06:40:20.969Z,20.00
2023-07-24T06:41:20.961Z,19.95
2023-07-24T06:42:20.965Z,19.98
2023-07-24T06:43:20.936Z,19.97
2023-07-24T06:44:20.923Z,20.00
2023-07-24T06:45:20.935Z,20.03
2023-07-24T06:46:20.928Z,20.08
2023-07-24T06:47:20.926Z,20.13
2023-07-24T06:48:20.865Z,20.23
2023-07-24T06:49:20.850Z,20.28
2023-07-24T06:50:20.843Z,20.38
2023-07-24T06:51:20.853Z,20.43
2023-07-24T06:52:20.826Z,20.53
2023-07-24T06:53:20.800Z,20.61
2023-07-24T06:54:20.793Z,20.59
2023-07-24T06:55:20.764Z,20.61
2023-07-24T06:56:20.779Z,20.64
2023-07-24T06:57:20.764Z,20.51
2023-07-24T06:58:20.747Z,20.54
2023-07-24T06:59:20.714Z,20.49
2023-07-24T07:00:20.732Z,20.50
2023-07-24T07:01:20.726Z,20.51
2023-07-24T07:02:20.680Z,20.39
2023-07-24T07:03:20.676Z,20.35
2023-07-24T07:04:20.648Z,20.33
2023-07-24T07:05:20.656Z,20.24
2023-07-24T07:07:20.605Z,20.10
2023-07-24T07:08:20.611Z,20.09
2023-07-24T07:09:20.576Z,20.05
2023-07-24T07:10:20.591Z,20.03
2023-07-24T07:11:20.563Z,19.98
2023-07-24T07:12:22.431Z,19.98
2023-07-24T07:13:20.528Z,20.03
2023-07-24T07:14:20.665Z,20.08
2023-07-24T07:15:20.514Z,20.09
2023-07-24T07:16:20.583Z,20.12
2023-07-24T07:17:20.469Z,20.15
2023-07-24T07:18:20.462Z,20.20
2023-07-24T07:19:20.467Z,20.28
2023-07-24T07:20:20.444Z,20.35
2023-07-24T07:21:20.418Z,20.38
2023-07-24T07:22:20.402Z,20.35
2023-07-24T07:23:20.392Z,20.38
2023-07-24T07:24:20.404Z,20.34
2023-07-24T07:25:20.366Z,20.33
2023-07-24T07:26:20.358Z,20.34
2023-07-24T07:27:20.344Z,20.39
2023-07-24T07:28:20.332Z,20.39
2023-07-24T07:29:20.326Z,20.34
2023-07-24T07:30:20.316Z,20.39
2023-07-24T07:31:20.329Z,20.41
2023-07-24T07:32:20.267Z,20.43
2023-07-24T07:33:20.258Z,20.41
2023-07-24T07:34:20.248Z,20.34
2023-07-24T07:35:20.238Z,20.33
2023-07-24T07:36:20.260Z,20.34
2023-07-24T07:37:20.197Z,20.33
2023-07-24T07:38:20.199Z,20.38
2023-07-24T07:39:20.172Z,20.39
2023-07-24T07:40:20.183Z,20.38
2023-07-24T07:41:20.153Z,20.33
2023-07-24T07:42:20.127Z,20.34
2023-07-24T07:43:20.112Z,20.38
2023-07-24T07:44:20.134Z,20.43
2023-07-24T07:45:20.093Z,20.51
2023-07-24T07:46:20.092Z,20.43
2023-07-24T07:47:20.059Z,20.34
2023-07-24T07:48:20.090Z,20.38
2023-07-24T07:49:20.049Z,20.34
2023-07-24T07:50:20.019Z,20.39
2023-07-24T07:51:20.030Z,20.38
2023-07-24T07:52:19.995Z,20.39
2023-07-24T07:53:19.976Z,20.41
2023-07-24T07:54:19.989Z,20.41
2023-07-24T07:55:19.976Z,20.43
2023-07-24T07:56:19.950Z,20.46
2023-07-24T07:57:19.939Z,20.54
2023-07-24T07:58:19.918Z,20.61
2023-07-24T07:59:19.919Z,20.58
2023-07-24T08:00:19.892Z,20.43
2023-07-24T08:01:19.907Z,20.49
2023-07-24T08:02:19.871Z,20.51
2023-07-24T08:03:19.912Z,20.59
2023-07-24T08:04:19.829Z,20.62
2023-07-24T08:05:21.667Z,20.61
2023-07-24T08:06:19.801Z,20.66
2023-07-24T08:07:19.797Z,20.71
2023-07-24T08:08:19.791Z,20.68
2023-07-24T08:09:19.792Z,20.66
2023-07-24T08:10:19.748Z,20.59
2023-07-24T08:11:19.737Z,20.53
2023-07-24T08:12:19.743Z,20.56
2023-07-24T08:13:19.746Z,20.54
2023-07-24T08:14:19.692Z,20.64
2023-07-24T08:15:19.685Z,20.79
2023-07-24T08:16:19.885Z,20.87
2023-07-24T08:17:19.754Z,21.02
2023-07-24T08:18:19.682Z,21.09
2023-07-24T08:19:19.655Z,21.11
2023-07-24T08:20:19.698Z,21.17
2023-07-24T08:21:19.606Z,21.24
2023-07-24T08:22:19.602Z,21.26
2023-07-24T08:23:19.573Z,21.26
2023-07-24T08:24:19.583Z,21.29
2023-07-24T08:25:19.544Z,21.27
2023-07-24T08:26:19.558Z,21.26
2023-07-24T08:27:19.533Z,21.19
2023-07-24T08:28:19.503Z,21.24
2023-07-24T08:29:19.502Z,21.32
2023-07-24T08:30:19.466Z,21.34
2023-07-24T08:31:19.533Z,21.41
2023-07-24T08:32:19.498Z,21.50
2023-07-24T08:33:19.435Z,21.59
2023-07-24T08:34:19.416Z,21.63
2023-07-24T08:35:19.413Z,21.69
2023-07-24T08:36:19.409Z,21.78
2023-07-24T08:37:19.388Z,21.81
2023-07-24T08:38:19.365Z,21.83
2023-07-24T08:39:19.347Z,21.83
2023-07-24T08:40:19.364Z,21.85
2023-07-24T08:41:19.488Z,21.83
2023-07-24T08:42:19.317Z,21.81
2023-07-24T08:43:19.306Z,21.69
2023-07-24T08:44:19.280Z,21.54
2023-07-24T08:45:19.334Z,21.44
2023-07-24T08:46:19.313Z,21.39
2023-07-24T08:47:19.296Z,21.34
2023-07-24T08:48:19.252Z,21.30
2023-07-24T08:49:19.211Z,21.27
2023-07-24T08:50:19.219Z,21.16
2023-07-24T08:51:19.194Z,21.13
2023-07-24T08:52:34.406Z,21.11
2023-07-24T08:53:20.179Z,21.09
2023-07-24T08:54:19.164Z,21.02
2023-07-24T08:55:19.154Z,20.99
2023-07-24T08:56:19.129Z,20.99
2023-07-24T08:57:19.118Z,21.02
2023-07-24T08:58:19.108Z,20.99
2023-07-24T08:59:19.111Z,20.98
2023-07-24T09:00:19.066Z,20.98
2023-07-24T09:01:19.104Z,21.01
2023-07-24T09:02:19.031Z,21.06
2023-07-24T09:03:19.126Z,21.04
2023-07-24T09:04:19.035Z,21.06
2023-07-24T09:05:19.017Z,21.05
2023-07-24T09:06:18.988Z,20.99
2023-07-24T09:07:18.970Z,20.86
2023-07-24T09:08:19.009Z,20.79
2023-07-24T09:09:18.968Z,20.72
2023-07-24T09:10:19.089Z,20.69
2023-07-24T09:11:18.936Z,20.74
2023-07-24T09:12:18.924Z,20.80
2023-07-24T09:13:18.916Z,20.80
2023-07-24T09:14:20.616Z,20.77
2023-07-24T09:15:18.886Z,20.79
2023-07-24T09:16:18.855Z,20.74
2023-07-24T09:17:18.850Z,20.74
2023-07-24T09:18:19.019Z,20.74
2023-07-24T09:19:26.649Z,20.80
2023-07-24T09:20:32.224Z,20.86
2023-07-24T09:21:21.784Z,20.87
2023-07-24T09:22:19.513Z,20.89
2023-07-24T09:23:21.862Z,20.93
2023-07-24T09:24:18.762Z,21.01
2023-07-24T09:25:18.746Z,21.05
2023-07-24T09:26:18.715Z,21.09
2023-07-24T09:27:18.715Z,21.13
2023-07-24T09:28:18.684Z,21.13
2023-07-24T09:29:18.700Z,21.11
2023-07-24T09:30:18.714Z,21.13
2023-07-24T09:31:18.650Z,21.09
2023-07-24T09:32:18.666Z,21.11
2023-07-24T09:33:18.631Z,21.05
2023-07-24T09:34:18.609Z,21.06
2023-07-24T09:35:18.605Z,21.06
2023-07-24T09:36:18.623Z,21.09
2023-07-24T09:37:18.592Z,21.16
2023-07-24T09:38:18.545Z,21.20
2023-07-24T09:39:18.539Z,21.24
2023-07-24T09:40:18.536Z,21.14
2023-07-24T09:42:18.511Z,20.90
2023-07-24T09:43:36.285Z,20.95
2023-07-24T09:44:19.472Z,21.04
2023-07-24T09:45:18.482Z,21.09
2023-07-24T09:46:18.522Z,21.14
2023-07-24T09:48:40.594Z,21.23
2023-07-24T09:49:19.498Z,21.27
2023-07-24T09:50:18.423Z,21.23
2023-07-24T09:51:18.383Z,21.34
2023-07-24T09:52:18.393Z,21.45
2023-07-24T09:53:18.351Z,21.57
2023-07-24T09:54:18.365Z,21.66
2023-07-24T09:55:18.351Z,21.74
2023-07-24T09:56:18.338Z,21.74
2023-07-24T09:57:22.365Z,21.81
2023-07-24T09:58:18.305Z,21.90
2023-07-24T09:59:18.280Z,21.88
2023-07-24T10:00:18.381Z,21.91
2023-07-24T10:01:18.256Z,22.02
2023-07-24T10:02:18.269Z,22.07
2023-07-24T10:03:18.220Z,22.04
2023-07-24T10:04:18.266Z,22.10
2023-07-24T10:05:18.223Z,22.17
2023-07-24T10:06:18.175Z,22.22
2023-07-24T10:07:18.169Z,22.31
2023-07-24T10:08:18.146Z,22.28
2023-07-24T10:09:18.155Z,22.34
2023-07-24T10:10:18.136Z,22.38
2023-07-24T10:11:18.110Z,22.29
2023-07-24T10:12:18.097Z,22.28
2023-07-24T10:13:18.096Z,22.16
2023-07-24T10:14:18.087Z,22.17
2023-07-24T10:15:18.058Z,22.23
2023-07-24T10:16:18.054Z,22.38
2023-07-24T10:17:20.408Z,22.35
2023-07-24T10:18:18.021Z,22.16
2023-07-24T10:19:18.053Z,22.02
2023-07-24T10:20:17.990Z,22.13
2023-07-24T10:21:17.972Z,22.14
2023-07-24T10:22:17.964Z,22.29
2023-07-24T10:23:17.982Z,22.37
2023-07-24T10:24:31.449Z,22.32
2023-07-24T10:25:19.049Z,22.35
2023-07-24T10:26:17.920Z,22.31
2023-07-24T10:27:17.891Z,22.27
2023-07-24T10:28:17.940Z,22.27
2023-07-24T10:29:17.862Z,22.27
2023-07-24T10:30:33.650Z,22.23
2023-07-24T10:31:19.036Z,22.19
2023-07-24T10:32:18.048Z,22.13
2023-07-24T10:33:17.920Z,22.02
2023-07-24T10:34:17.792Z,21.98
2023-07-24T10:35:17.786Z,21.97
2023-07-24T10:36:17.765Z,22.01
2023-07-24T10:37:17.789Z,22.04
2023-07-24T10:38:17.737Z,22.04
2023-07-24T10:39:17.732Z,21.91
2023-07-24T10:40:17.705Z,21.79
2023-07-24T10:41:17.701Z,21.75
2023-07-24T10:42:17.696Z,21.76
2023-07-24T10:43:17.666Z,21.90
2023-07-24T10:44:17.659Z,22.01
2023-07-24T10:45:17.645Z,22.07
2023-07-24T10:46:17.728Z,22.12
2023-07-24T10:47:17.629Z,22.12
2023-07-24T10:48:17.602Z,22.13
2023-07-24T10:49:17.655Z,22.07
2023-07-24T10:50:17.573Z,22.07
2023-07-24T10:51:17.633Z,22.17
2023-07-24T10:52:17.548Z,22.31
2023-07-24T10:53:17.540Z,22.38
2023-07-24T10:55:27.340Z,22.77
2023-07-24T10:56:27.332Z,22.97
2023-07-24T10:57:27.282Z,23.07
2023-07-24T10:58:29.988Z,23.26
2023-07-24T10:59:27.284Z,23.53
2023-07-24T11:00:27.291Z,23.75
2023-07-24T11:01:27.337Z,24.01
2023-07-24T11:02:27.261Z,24.08
2023-07-24T11:03:27.223Z,24.13
2023-07-24T11:04:27.218Z,24.01
2023-07-24T11:05:27.276Z,23.85
2023-07-24T11:06:27.183Z,23.65
2023-07-24T11:07:27.190Z,23.43
2023-07-24T11:08:27.185Z,23.23
2023-07-24T11:09:27.138Z,23.07
2023-07-24T11:10:27.166Z,22.93
2023-07-24T11:11:27.100Z,22.80
2023-07-24T11:12:27.105Z,22.69
2023-07-24T11:13:27.094Z,22.56
2023-07-24T11:14:27.111Z,22.49
2023-07-24T11:15:27.078Z,22.41
2023-07-24T11:16:27.049Z,22.37
2023-07-24T11:17:27.097Z,22.37
2023-07-24T11:18:31.701Z,22.37
2023-07-24T11:19:28.225Z,22.28
2023-07-24T11:20:27.019Z,22.22
2023-07-24T11:21:27.077Z,22.13
2023-07-24T11:22:26.976Z,22.04
2023-07-24T11:23:26.928Z,21.92
2023-07-24T11:24:27.009Z,21.66
2023-07-24T11:25:26.936Z,21.38
2023-07-24T11:26:27.009Z,21.09
2023-07-24T11:27:26.884Z,20.53
2023-07-24T11:28:26.923Z,19.79
2023-07-24T11:29:26.916Z,19.21
2023-07-24T11:30:26.852Z,18.73
2023-07-24T11:31:26.968Z,18.17
2023-07-24T11:32:26.940Z,17.88
2023-07-24T11:33:26.813Z,17.70
2023-07-24T11:34:26.793Z,17.54
2023-07-24T11:35:26.792Z,17.47
2023-07-24T11:36:26.836Z,17.26
2023-07-24T11:37:26.755Z,16.99
2023-07-24T11:38:26.757Z,16.93
2023-07-24T11:39:26.747Z,16.90
2023-07-24T11:40:26.718Z,16.89
2023-07-24T11:41:26.718Z,16.89
2023-07-24T11:42:26.699Z,16.93
2023-07-24T11:43:26.700Z,16.99
2023-07-24T11:44:26.666Z,17.06
2023-07-24T11:45:26.636Z,17.07
2023-07-24T11:46:26.791Z,17.03
2023-07-24T11:47:26.647Z,17.10
2023-07-24T11:48:26.602Z,17.11
2023-07-24T11:49:26.587Z,17.08
2023-07-24T11:50:26.580Z,17.03
2023-07-24T11:51:26.632Z,17.00
2023-07-24T11:52:26.570Z,17.08
2023-07-24T11:53:26.576Z,17.10
2023-07-24T11:54:26.519Z,17.13
2023-07-24T11:55:26.497Z,17.13
2023-07-24T11:56:26.516Z,17.18
2023-07-24T11:57:26.494Z,17.26
2023-07-24T11:58:26.467Z,17.26
2023-07-24T11:59:26.463Z,17.30
2023-07-24T12:00:26.442Z,17.32
2023-07-24T12:01:26.460Z,17.32
2023-07-24T12:02:26.478Z,17.28
2023-07-24T12:03:26.565Z,17.26
2023-07-24T12:04:26.509Z,17.25
2023-07-24T12:05:26.370Z,17.26
2023-07-24T12:06:26.401Z,17.23
2023-07-24T12:07:26.350Z,17.17
2023-07-24T12:08:26.338Z,17.10
2023-07-24T12:09:26.325Z,17.06
2023-07-24T12:10:26.334Z,17.06
2023-07-24T12:11:26.334Z,17.03
2023-07-24T12:12:26.281Z,17.03
2023-07-24T12:13:26.262Z,17.00
2023-07-24T12:14:26.264Z,16.98
2023-07-24T12:15:26.305Z,16.95
2023-07-24T12:16:26.323Z,16.99
2023-07-24T12:17:26.246Z,17.03
2023-07-24T12:18:26.247Z,17.07
2023-07-24T12:19:26.196Z,17.11
2023-07-24T12:20:26.191Z,17.15
2023-07-24T12:21:26.236Z,17.25
2023-07-24T12:22:26.499Z,17.20
2023-07-24T12:23:26.124Z,17.25
2023-07-24T12:24:26.192Z,17.30
2023-07-24T12:25:26.132Z,17.35
2023-07-24T12:26:26.106Z,17.41
2023-07-24T12:27:26.083Z,17.40
2023-07-24T12:28:26.081Z,17.41
2023-07-24T12:29:26.066Z,17.38
2023-07-24T12:30:26.037Z,17.41
2023-07-24T12:31:26.111Z,17.53
2023-07-24T12:32:26.044Z,17.57
2023-07-24T12:33:26.007Z,18.18
2023-07-24T12:34:26.005Z,19.08
2023-07-24T12:35:25.980Z,19.78
2023-07-24T12:36:25.968Z,20.46
2023-07-24T12:37:25.952Z,21.13
2023-07-24T12:38:25.959Z,21.35
2023-07-24T12:39:25.930Z,21.59
2023-07-24T12:40:25.911Z,21.60
2023-07-24T12:41:25.888Z,21.78
2023-07-24T12:42:25.888Z,22.01
2023-07-24T12:43:25.871Z,22.32
2023-07-24T12:44:25.918Z,22.50